sensor_id;sensor_type;location;lat;lon;timestamp;P1;durP1;ratioP1;P2;durP2;ratioP2
8066;SDS011;4076;48.076;9.118;2022-09-12T00:01:16;9.50;;;4.00;;
8066;SDS011;4076;48.076;9.118;2022-09-12T00:03:43;6.27;;;3.20;;
8066;SDS011;4076;48.076;9.118;2022-09-12T00:06:10;7.27;;;4.57;;
8066;SDS011;4076;48.076;9.118;2022-09-12T00:08:38;7.33;;;3.93;;
8066;SDS011;4076;48.076;9.118;2022-09-12T00:11:05;7.00;;;4.07;;
8066;SDS011;4076;48.076;9.118;2022-09-12T00:13:32;5.50;;;3.60;;
8066;SDS011;4076;48.076;9.118;2022-09-12T00:15:58;6.10;;;3.17;;
8066;SDS011;4076;48.076;9.118;2022-09-12T00:18:23;6.63;;;3.30;;
8066;SDS011;4076;48.076;9.118;2022-09-12T00:20:49;6.00;;;3.83;;
8066;SDS011;4076;48.076;9.118;2022-09-12T00:23:15;6.70;;;3.90;;
8066;SDS011;4076;48.076;9.118;2022-09-12T00:25:44;6.03;;;4.00;;
8066;SDS011;4076;48.076;9.118;2022-09-12T00:28:12;10.60;;;4.67;;
8066;SDS011;4076;48.076;9.118;2022-09-12T00:30:40;5.00;;;2.67;;
8066;SDS011;4076;48.076;9.118;2022-09-12T00:33:07;6.27;;;3.40;;
8066;SDS011;4076;48.076;9.118;2022-09-12T00:35:33;7.10;;;4.17;;
8066;SDS011;4076;48.076;9.118;2022-09-12T00:37:59;5.77;;;3.40;;
8066;SDS011;4076;48.076;9.118;2022-09-12T00:40:24;7.13;;;3.93;;
8066;SDS011;4076;48.076;9.118;2022-09-12T00:42:52;6.43;;;3.30;;
8066;SDS011;4076;48.076;9.118;2022-09-12T00:45:19;5.77;;;3.30;;
8066;SDS011;4076;48.076;9.118;2022-09-12T00:47:51;5.70;;;3.07;;
8066;SDS011;4076;48.076;9.118;2022-09-12T00:50:18;4.80;;;3.03;;
8066;SDS011;4076;48.076;9.118;2022-09-12T00:52:51;7.23;;;3.73;;
8066;SDS011;4076;48.076;9.118;2022-09-12T00:55:22;5.50;;;2.90;;
8066;SDS011;4076;48.076;9.118;2022-09-12T00:58:05;7.53;;;3.40;;
8066;SDS011;4076;48.076;9.118;2022-09-12T01:00:37;5.73;;;3.10;;
8066;SDS011;4076;48.076;9.118;2022-09-12T01:03:07;6.10;;;3.40;;
8066;SDS011;4076;48.076;9.118;2022-09-12T01:05:38;6.07;;;3.47;;
8066;SDS011;4076;48.076;9.118;2022-09-12T01:08:09;5.80;;;3.40;;
8066;SDS011;4076;48.076;9.118;2022-09-12T01:10:36;4.93;;;2.90;;
8066;SDS011;4076;48.076;9.118;2022-09-12T01:13:04;8.27;;;3.30;;
8066;SDS011;4076;48.076;9.118;2022-09-12T01:15:31;8.20;;;4.53;;
8066;SDS011;4076;48.076;9.118;2022-09-12T01:29:26;19.10;;;5.80;;
8066;SDS011;4076;48.076;9.118;2022-09-12T01:32:30;8.43;;;4.57;;
8066;SDS011;4076;48.076;9.118;2022-09-12T01:37:59;6.43;;;3.77;;
8066;SDS011;4076;48.076;9.118;2022-09-12T01:40:44;7.40;;;4.07;;
8066;SDS011;4076;48.076;9.118;2022-09-12T01:48:54;6.77;;;4.07;;
8066;SDS011;4076;48.076;9.118;2022-09-12T01:54:15;4.57;;;2.40;;
8066;SDS011;4076;48.076;9.118;2022-09-12T01:56:48;6.33;;;3.53;;
8066;SDS011;4076;48.076;9.118;2022-09-12T01:59:34;6.00;;;3.73;;
8066;SDS011;4076;48.076;9.118;2022-09-12T02:02:10;8.40;;;4.60;;
8066;SDS011;4076;48.076;9.118;2022-09-12T02:04:42;6.90;;;3.73;;
8066;SDS011;4076;48.076;9.118;2022-09-12T02:07:17;9.10;;;3.70;;
8066;SDS011;4076;48.076;9.118;2022-09-12T02:10:29;5.70;;;3.30;;
8066;SDS011;4076;48.076;9.118;2022-09-12T02:12:39;6.23;;;3.10;;
8066;SDS011;4076;48.076;9.118;2022-09-12T02:15:18;6.17;;;3.80;;
8066;SDS011;4076;48.076;9.118;2022-09-12T02:17:48;7.77;;;5.00;;
8066;SDS011;4076;48.076;9.118;2022-09-12T02:20:18;15.63;;;6.93;;
8066;SDS011;4076;48.076;9.118;2022-09-12T02:22:47;12.40;;;5.50;;
8066;SDS011;4076;48.076;9.118;2022-09-12T02:25:15;5.93;;;3.53;;
8066;SDS011;4076;48.076;9.118;2022-09-12T02:27:45;6.97;;;3.27;;
8066;SDS011;4076;48.076;9.118;2022-09-12T02:30:14;6.30;;;4.20;;
8066;SDS011;4076;48.076;9.118;2022-09-12T02:33:00;7.80;;;4.50;;
8066;SDS011;4076;48.076;9.118;2022-09-12T02:35:46;7.60;;;4.70;;
8066;SDS011;4076;48.076;9.118;2022-09-12T02:38:19;13.60;;;4.60;;
8066;SDS011;4076;48.076;9.118;2022-09-12T02:40:57;7.00;;;4.20;;
8066;SDS011;4076;48.076;9.118;2022-09-12T02:43:23;5.87;;;3.37;;
8066;SDS011;4076;48.076;9.118;2022-09-12T02:45:49;7.37;;;4.43;;
8066;SDS011;4076;48.076;9.118;2022-09-12T02:48:19;6.70;;;3.90;;
8066;SDS011;4076;48.076;9.118;2022-09-12T02:50:50;7.23;;;3.87;;
8066;SDS011;4076;48.076;9.118;2022-09-12T02:53:15;6.00;;;3.90;;
8066;SDS011;4076;48.076;9.118;2022-09-12T02:55:42;7.30;;;4.20;;
8066;SDS011;4076;48.076;9.118;2022-09-12T02:58:11;6.37;;;3.50;;
8066;SDS011;4076;48.076;9.118;2022-09-12T03:00:48;5.57;;;3.17;;
8066;SDS011;4076;48.076;9.118;2022-09-12T03:12:07;7.53;;;4.30;;
8066;SDS011;4076;48.076;9.118;2022-09-12T03:14:58;6.07;;;3.27;;
8066;SDS011;4076;48.076;9.118;2022-09-12T03:20:36;7.50;;;3.80;;
8066;SDS011;4076;48.076;9.118;2022-09-12T03:26:21;8.67;;;4.70;;
8066;SDS011;4076;48.076;9.118;2022-09-12T03:28:52;7.93;;;5.30;;
8066;SDS011;4076;48.076;9.118;2022-09-12T03:31:19;5.83;;;4.00;;
8066;SDS011;4076;48.076;9.118;2022-09-12T03:33:45;9.77;;;5.57;;
8066;SDS011;4076;48.076;9.118;2022-09-12T03:36:15;8.50;;;4.33;;
8066;SDS011;4076;48.076;9.118;2022-09-12T03:38:45;7.40;;;4.23;;
8066;SDS011;4076;48.076;9.118;2022-09-12T03:41:10;6.77;;;4.00;;
8066;SDS011;4076;48.076;9.118;2022-09-12T03:43:36;7.20;;;4.40;;
8066;SDS011;4076;48.076;9.118;2022-09-12T03:46:02;5.23;;;3.17;;
8066;SDS011;4076;48.076;9.118;2022-09-12T03:48:27;5.20;;;3.30;;
8066;SDS011;4076;48.076;9.118;2022-09-12T03:50:53;6.30;;;4.10;;
8066;SDS011;4076;48.076;9.118;2022-09-12T03:53:19;6.13;;;3.20;;
8066;SDS011;4076;48.076;9.118;2022-09-12T03:55:44;6.57;;;3.80;;
8066;SDS011;4076;48.076;9.118;2022-09-12T03:58:10;6.27;;;3.30;;
8066;SDS011;4076;48.076;9.118;2022-09-12T04:00:37;6.33;;;3.27;;
8066;SDS011;4076;48.076;9.118;2022-09-12T04:03:03;7.50;;;4.10;;
8066;SDS011;4076;48.076;9.118;2022-09-12T04:05:29;7.20;;;4.53;;
8066;SDS011;4076;48.076;9.118;2022-09-12T04:07:54;7.17;;;4.90;;
8066;SDS011;4076;48.076;9.118;2022-09-12T04:10:20;6.43;;;4.03;;
8066;SDS011;4076;48.076;9.118;2022-09-12T04:12:46;6.63;;;4.10;;
8066;SDS011;4076;48.076;9.118;2022-09-12T04:15:12;6.90;;;3.63;;
8066;SDS011;4076;48.076;9.118;2022-09-12T04:17:38;6.90;;;3.80;;
8066;SDS011;4076;48.076;9.118;2022-09-12T04:20:04;8.10;;;4.43;;
8066;SDS011;4076;48.076;9.118;2022-09-12T04:22:30;6.57;;;3.77;;
8066;SDS011;4076;48.076;9.118;2022-09-12T04:24:56;5.70;;;3.23;;
8066;SDS011;4076;48.076;9.118;2022-09-12T04:27:22;8.03;;;3.90;;
8066;SDS011;4076;48.076;9.118;2022-09-12T04:29:47;6.20;;;3.43;;
8066;SDS011;4076;48.076;9.118;2022-09-12T04:32:13;4.13;;;2.33;;
8066;SDS011;4076;48.076;9.118;2022-09-12T04:34:39;7.73;;;4.73;;
8066;SDS011;4076;48.076;9.118;2022-09-12T04:37:04;5.30;;;3.10;;
8066;SDS011;4076;48.076;9.118;2022-09-12T04:39:30;7.10;;;4.23;;
8066;SDS011;4076;48.076;9.118;2022-09-12T04:41:56;7.33;;;3.87;;
8066;SDS011;4076;48.076;9.118;2022-09-12T04:44:21;4.83;;;2.87;;
8066;SDS011;4076;48.076;9.118;2022-09-12T04:46:47;5.77;;;4.03;;
8066;SDS011;4076;48.076;9.118;2022-09-12T04:49:13;4.63;;;2.70;;
8066;SDS011;4076;48.076;9.118;2022-09-12T04:51:41;4.93;;;2.80;;
8066;SDS011;4076;48.076;9.118;2022-09-12T04:54:10;5.80;;;3.47;;
8066;SDS011;4076;48.076;9.118;2022-09-12T04:56:40;4.80;;;2.67;;
8066;SDS011;4076;48.076;9.118;2022-09-12T04:59:07;6.17;;;2.70;;
8066;SDS011;4076;48.076;9.118;2022-09-12T05:01:33;4.70;;;2.97;;
8066;SDS011;4076;48.076;9.118;2022-09-12T05:03:59;5.93;;;3.47;;
8066;SDS011;4076;48.076;9.118;2022-09-12T05:06:29;6.67;;;3.77;;
8066;SDS011;4076;48.076;9.118;2022-09-12T05:08:57;5.67;;;3.20;;
8066;SDS011;4076;48.076;9.118;2022-09-12T05:11:27;4.80;;;2.47;;
8066;SDS011;4076;48.076;9.118;2022-09-12T05:13:55;4.80;;;2.90;;
8066;SDS011;4076;48.076;9.118;2022-09-12T05:16:21;5.67;;;3.37;;
8066;SDS011;4076;48.076;9.118;2022-09-12T05:18:48;5.93;;;3.43;;
8066;SDS011;4076;48.076;9.118;2022-09-12T05:21:15;4.67;;;3.10;;
8066;SDS011;4076;48.076;9.118;2022-09-12T05:23:42;5.50;;;3.37;;
8066;SDS011;4076;48.076;9.118;2022-09-12T05:26:12;6.13;;;3.90;;
8066;SDS011;4076;48.076;9.118;2022-09-12T05:28:39;4.13;;;2.17;;
8066;SDS011;4076;48.076;9.118;2022-09-12T05:31:12;5.20;;;2.67;;
8066;SDS011;4076;48.076;9.118;2022-09-12T05:33:41;4.97;;;3.27;;
8066;SDS011;4076;48.076;9.118;2022-09-12T05:36:10;6.40;;;3.40;;
8066;SDS011;4076;48.076;9.118;2022-09-12T05:38:37;6.30;;;3.00;;
8066;SDS011;4076;48.076;9.118;2022-09-12T05:41:04;4.80;;;2.67;;
8066;SDS011;4076;48.076;9.118;2022-09-12T05:43:37;5.67;;;2.93;;
8066;SDS011;4076;48.076;9.118;2022-09-12T05:46:11;5.03;;;2.60;;
8066;SDS011;4076;48.076;9.118;2022-09-12T05:48:39;6.13;;;3.30;;
8066;SDS011;4076;48.076;9.118;2022-09-12T05:51:10;4.23;;;2.50;;
8066;SDS011;4076;48.076;9.118;2022-09-12T05:53:37;5.80;;;3.03;;
8066;SDS011;4076;48.076;9.118;2022-09-12T05:58:33;5.17;;;2.83;;
8066;SDS011;4076;48.076;9.118;2022-09-12T06:01:01;4.67;;;2.90;;
8066;SDS011;4076;48.076;9.118;2022-09-12T06:03:32;5.47;;;2.70;;
8066;SDS011;4076;48.076;9.118;2022-09-12T06:06:02;4.47;;;2.57;;
8066;SDS011;4076;48.076;9.118;2022-09-12T06:08:29;4.43;;;2.43;;
8066;SDS011;4076;48.076;9.118;2022-09-12T06:11:00;5.67;;;3.13;;
8066;SDS011;4076;48.076;9.118;2022-09-12T06:13:30;4.93;;;3.13;;
8066;SDS011;4076;48.076;9.118;2022-09-12T06:16:01;4.07;;;2.00;;
8066;SDS011;4076;48.076;9.118;2022-09-12T06:18:32;4.27;;;2.20;;
8066;SDS011;4076;48.076;9.118;2022-09-12T06:21:08;3.33;;;2.00;;
8066;SDS011;4076;48.076;9.118;2022-09-12T06:23:35;3.80;;;2.10;;
8066;SDS011;4076;48.076;9.118;2022-09-12T06:26:02;5.00;;;2.90;;
8066;SDS011;4076;48.076;9.118;2022-09-12T06:28:29;3.67;;;2.20;;
8066;SDS011;4076;48.076;9.118;2022-09-12T06:31:05;4.97;;;2.70;;
8066;SDS011;4076;48.076;9.118;2022-09-12T06:33:52;4.70;;;2.43;;
8066;SDS011;4076;48.076;9.118;2022-09-12T06:36:23;4.57;;;2.80;;
8066;SDS011;4076;48.076;9.118;2022-09-12T06:38:54;4.53;;;2.13;;
8066;SDS011;4076;48.076;9.118;2022-09-12T06:41:21;4.83;;;3.70;;
8066;SDS011;4076;48.076;9.118;2022-09-12T06:43:48;4.63;;;2.63;;
8066;SDS011;4076;48.076;9.118;2022-09-12T06:46:13;11.73;;;2.73;;
8066;SDS011;4076;48.076;9.118;2022-09-12T06:48:39;4.23;;;2.27;;
8066;SDS011;4076;48.076;9.118;2022-09-12T06:51:06;4.27;;;2.27;;
8066;SDS011;4076;48.076;9.118;2022-09-12T06:53:35;5.87;;;3.97;;
8066;SDS011;4076;48.076;9.118;2022-09-12T06:56:11;4.90;;;2.83;;
8066;SDS011;4076;48.076;9.118;2022-09-12T06:58:39;3.73;;;2.23;;
8066;SDS011;4076;48.076;9.118;2022-09-12T07:03:36;4.33;;;2.20;;
8066;SDS011;4076;48.076;9.118;2022-09-12T07:06:03;3.97;;;2.13;;
8066;SDS011;4076;48.076;9.118;2022-09-12T07:08:29;3.63;;;1.80;;
8066;SDS011;4076;48.076;9.118;2022-09-12T07:10:55;5.30;;;3.10;;
8066;SDS011;4076;48.076;9.118;2022-09-12T07:13:23;4.50;;;2.30;;
8066;SDS011;4076;48.076;9.118;2022-09-12T07:15:49;4.47;;;2.30;;
8066;SDS011;4076;48.076;9.118;2022-09-12T07:18:15;4.40;;;2.50;;
8066;SDS011;4076;48.076;9.118;2022-09-12T07:20:41;4.10;;;2.37;;
8066;SDS011;4076;48.076;9.118;2022-09-12T07:23:07;4.53;;;2.33;;
8066;SDS011;4076;48.076;9.118;2022-09-12T07:25:33;4.50;;;2.10;;
8066;SDS011;4076;48.076;9.118;2022-09-12T07:27:58;4.10;;;2.20;;
8066;SDS011;4076;48.076;9.118;2022-09-12T07:30:24;4.80;;;1.77;;
8066;SDS011;4076;48.076;9.118;2022-09-12T07:32:51;4.13;;;1.80;;
8066;SDS011;4076;48.076;9.118;2022-09-12T07:35:20;4.10;;;1.73;;
8066;SDS011;4076;48.076;9.118;2022-09-12T07:37:45;3.80;;;1.70;;
8066;SDS011;4076;48.076;9.118;2022-09-12T07:40:11;3.53;;;1.50;;
8066;SDS011;4076;48.076;9.118;2022-09-12T07:42:37;4.40;;;2.27;;
8066;SDS011;4076;48.076;9.118;2022-09-12T07:45:02;3.97;;;1.40;;
8066;SDS011;4076;48.076;9.118;2022-09-12T07:47:28;3.00;;;1.40;;
8066;SDS011;4076;48.076;9.118;2022-09-12T07:49:54;3.90;;;2.00;;
8066;SDS011;4076;48.076;9.118;2022-09-12T07:52:20;3.00;;;1.70;;
8066;SDS011;4076;48.076;9.118;2022-09-12T07:54:46;3.03;;;2.30;;
8066;SDS011;4076;48.076;9.118;2022-09-12T07:57:11;2.90;;;1.57;;
8066;SDS011;4076;48.076;9.118;2022-09-12T07:59:37;3.00;;;1.90;;
8066;SDS011;4076;48.076;9.118;2022-09-12T08:02:09;2.67;;;1.93;;
8066;SDS011;4076;48.076;9.118;2022-09-12T08:04:37;3.07;;;1.80;;
8066;SDS011;4076;48.076;9.118;2022-09-12T08:07:03;2.67;;;2.10;;
8066;SDS011;4076;48.076;9.118;2022-09-12T08:09:30;4.60;;;4.20;;
8066;SDS011;4076;48.076;9.118;2022-09-12T08:11:56;4.37;;;3.50;;
8066;SDS011;4076;48.076;9.118;2022-09-12T08:14:21;5.60;;;3.90;;
8066;SDS011;4076;48.076;9.118;2022-09-12T08:16:47;4.60;;;4.20;;
8066;SDS011;4076;48.076;9.118;2022-09-12T08:19:13;4.00;;;3.70;;
8066;SDS011;4076;48.076;9.118;2022-09-12T08:21:40;4.93;;;4.53;;
8066;SDS011;4076;48.076;9.118;2022-09-12T08:24:05;6.13;;;5.70;;
8066;SDS011;4076;48.076;9.118;2022-09-12T08:26:32;5.60;;;5.20;;
8066;SDS011;4076;48.076;9.118;2022-09-12T08:28:58;7.40;;;6.90;;
8066;SDS011;4076;48.076;9.118;2022-09-12T08:31:24;7.47;;;7.07;;
8066;SDS011;4076;48.076;9.118;2022-09-12T08:33:51;8.53;;;7.93;;
8066;SDS011;4076;48.076;9.118;2022-09-12T08:36:20;9.03;;;8.53;;
8066;SDS011;4076;48.076;9.118;2022-09-12T08:38:49;9.80;;;9.20;;
8066;SDS011;4076;48.076;9.118;2022-09-12T08:41:22;8.30;;;7.80;;
8066;SDS011;4076;48.076;9.118;2022-09-12T08:49:31;5.70;;;5.30;;
8066;SDS011;4076;48.076;9.118;2022-09-12T08:52:01;6.13;;;5.73;;
8066;SDS011;4076;48.076;9.118;2022-09-12T08:54:35;5.60;;;5.20;;
8066;SDS011;4076;48.076;9.118;2022-09-12T08:57:02;5.63;;;5.23;;
8066;SDS011;4076;48.076;9.118;2022-09-12T08:59:36;6.83;;;6.43;;
8066;SDS011;4076;48.076;9.118;2022-09-12T09:02:04;6.43;;;6.03;;
8066;SDS011;4076;48.076;9.118;2022-09-12T09:04:50;6.30;;;5.90;;
8066;SDS011;4076;48.076;9.118;2022-09-12T09:16:43;5.00;;;4.70;;
8066;SDS011;4076;48.076;9.118;2022-09-12T09:19:14;5.63;;;5.23;;
8066;SDS011;4076;48.076;9.118;2022-09-12T09:21:56;4.80;;;4.50;;
8066;SDS011;4076;48.076;9.118;2022-09-12T09:24:48;5.83;;;5.43;;
8066;SDS011;4076;48.076;9.118;2022-09-12T09:27:28;5.30;;;4.90;;
8066;SDS011;4076;48.076;9.118;2022-09-12T09:29:58;5.80;;;5.50;;
8066;SDS011;4076;48.076;9.118;2022-09-12T09:32:27;5.40;;;5.10;;
8066;SDS011;4076;48.076;9.118;2022-09-12T09:35:01;4.80;;;4.50;;
8066;SDS011;4076;48.076;9.118;2022-09-12T09:43:39;5.57;;;5.20;;
8066;SDS011;4076;48.076;9.118;2022-09-12T09:46:05;4.90;;;4.50;;
8066;SDS011;4076;48.076;9.118;2022-09-12T09:48:31;6.43;;;6.03;;
8066;SDS011;4076;48.076;9.118;2022-09-12T09:50:58;5.33;;;4.93;;
8066;SDS011;4076;48.076;9.118;2022-09-12T09:55:58;4.97;;;4.60;;
8066;SDS011;4076;48.076;9.118;2022-09-12T09:58:34;6.57;;;6.00;;
8066;SDS011;4076;48.076;9.118;2022-09-12T10:01:11;5.10;;;4.80;;
8066;SDS011;4076;48.076;9.118;2022-09-12T10:03:41;4.27;;;3.87;;
8066;SDS011;4076;48.076;9.118;2022-09-12T10:08:47;2.90;;;2.20;;
8066;SDS011;4076;48.076;9.118;2022-09-12T10:16:16;4.37;;;2.33;;
8066;SDS011;4076;48.076;9.118;2022-09-12T10:18:43;2.93;;;2.00;;
8066;SDS011;4076;48.076;9.118;2022-09-12T10:21:52;2.50;;;1.93;;
8066;SDS011;4076;48.076;9.118;2022-09-12T10:26:48;2.80;;;1.73;;
8066;SDS011;4076;48.076;9.118;2022-09-12T10:29:26;2.30;;;1.50;;
8066;SDS011;4076;48.076;9.118;2022-09-12T10:31:54;3.50;;;1.70;;
8066;SDS011;4076;48.076;9.118;2022-09-12T10:34:24;2.30;;;1.37;;
8066;SDS011;4076;48.076;9.118;2022-09-12T10:36:58;2.20;;;1.40;;
8066;SDS011;4076;48.076;9.118;2022-09-12T10:39:32;2.70;;;1.53;;
8066;SDS011;4076;48.076;9.118;2022-09-12T10:42:00;2.67;;;1.60;;
8066;SDS011;4076;48.076;9.118;2022-09-12T10:44:28;2.30;;;1.30;;
8066;SDS011;4076;48.076;9.118;2022-09-12T10:46:55;2.63;;;1.40;;
8066;SDS011;4076;48.076;9.118;2022-09-12T10:49:24;2.80;;;1.40;;
8066;SDS011;4076;48.076;9.118;2022-09-12T10:51:50;2.40;;;1.40;;
8066;SDS011;4076;48.076;9.118;2022-09-12T10:54:19;3.00;;;1.27;;
8066;SDS011;4076;48.076;9.118;2022-09-12T10:56:58;2.47;;;1.40;;
8066;SDS011;4076;48.076;9.118;2022-09-12T11:02:28;2.83;;;1.40;;
8066;SDS011;4076;48.076;9.118;2022-09-12T11:10:54;2.63;;;1.40;;
8066;SDS011;4076;48.076;9.118;2022-09-12T11:17:12;3.53;;;2.27;;
8066;SDS011;4076;48.076;9.118;2022-09-12T11:22:21;2.77;;;1.33;;
8066;SDS011;4076;48.076;9.118;2022-09-12T11:31:06;2.80;;;1.40;;
8066;SDS011;4076;48.076;9.118;2022-09-12T11:33:41;3.00;;;1.50;;
8066;SDS011;4076;48.076;9.118;2022-09-12T11:36:16;5.13;;;1.60;;
8066;SDS011;4076;48.076;9.118;2022-09-12T11:41:41;2.67;;;1.50;;
8066;SDS011;4076;48.076;9.118;2022-09-12T11:46:47;3.47;;;1.80;;
8066;SDS011;4076;48.076;9.118;2022-09-12T11:52:19;2.50;;;1.40;;
8066;SDS011;4076;48.076;9.118;2022-09-12T11:57:24;3.57;;;2.03;;
8066;SDS011;4076;48.076;9.118;2022-09-12T12:05:33;3.10;;;1.57;;
8066;SDS011;4076;48.076;9.118;2022-09-12T12:08:05;3.50;;;1.90;;
8066;SDS011;4076;48.076;9.118;2022-09-12T12:13:25;3.47;;;1.50;;
8066;SDS011;4076;48.076;9.118;2022-09-12T12:18:52;2.90;;;1.27;;
8066;SDS011;4076;48.076;9.118;2022-09-12T12:24:13;2.50;;;1.40;;
8066;SDS011;4076;48.076;9.118;2022-09-12T12:27:04;2.30;;;1.40;;
8066;SDS011;4076;48.076;9.118;2022-09-12T12:29:46;3.10;;;1.40;;
8066;SDS011;4076;48.076;9.118;2022-09-12T12:34:42;3.10;;;1.30;;
8066;SDS011;4076;48.076;9.118;2022-09-12T12:42:55;2.30;;;1.10;;
8066;SDS011;4076;48.076;9.118;2022-09-12T12:44:57;2.93;;;1.60;;
8066;SDS011;4076;48.076;9.118;2022-09-12T12:52:44;3.00;;;1.40;;
8066;SDS011;4076;48.076;9.118;2022-09-12T12:55:25;2.60;;;1.30;;
8066;SDS011;4076;48.076;9.118;2022-09-12T12:57:55;2.57;;;1.40;;
8066;SDS011;4076;48.076;9.118;2022-09-12T13:00:35;2.57;;;1.20;;
8066;SDS011;4076;48.076;9.118;2022-09-12T13:05:36;3.77;;;1.70;;
8066;SDS011;4076;48.076;9.118;2022-09-12T13:11:14;3.13;;;1.50;;
8066;SDS011;4076;48.076;9.118;2022-09-12T13:13:55;3.80;;;1.30;;
8066;SDS011;4076;48.076;9.118;2022-09-12T13:19:07;3.33;;;1.67;;
8066;SDS011;4076;48.076;9.118;2022-09-12T13:22:02;4.13;;;1.43;;
8066;SDS011;4076;48.076;9.118;2022-09-12T13:24:31;2.83;;;1.23;;
8066;SDS011;4076;48.076;9.118;2022-09-12T13:26:58;2.50;;;1.40;;
8066;SDS011;4076;48.076;9.118;2022-09-12T13:29:24;2.57;;;1.50;;
8066;SDS011;4076;48.076;9.118;2022-09-12T13:31:52;3.17;;;1.10;;
8066;SDS011;4076;48.076;9.118;2022-09-12T13:34:24;4.00;;;1.40;;
8066;SDS011;4076;48.076;9.118;2022-09-12T13:37:17;2.93;;;1.63;;
8066;SDS011;4076;48.076;9.118;2022-09-12T13:40:15;3.80;;;2.03;;
8066;SDS011;4076;48.076;9.118;2022-09-12T13:43:11;2.80;;;1.50;;
8066;SDS011;4076;48.076;9.118;2022-09-12T13:45:41;2.70;;;1.30;;
8066;SDS011;4076;48.076;9.118;2022-09-12T13:48:12;2.93;;;1.20;;
8066;SDS011;4076;48.076;9.118;2022-09-12T13:51:01;2.43;;;1.30;;
8066;SDS011;4076;48.076;9.118;2022-09-12T13:54:03;2.67;;;1.27;;
8066;SDS011;4076;48.076;9.118;2022-09-12T13:56:24;3.03;;;1.60;;
8066;SDS011;4076;48.076;9.118;2022-09-12T13:58:54;2.60;;;1.37;;
8066;SDS011;4076;48.076;9.118;2022-09-12T14:01:22;2.90;;;1.40;;
8066;SDS011;4076;48.076;9.118;2022-09-12T14:03:50;2.60;;;1.27;;
8066;SDS011;4076;48.076;9.118;2022-09-12T14:06:49;3.23;;;1.40;;
8066;SDS011;4076;48.076;9.118;2022-09-12T14:11:56;3.80;;;1.50;;
8066;SDS011;4076;48.076;9.118;2022-09-12T14:14:32;4.03;;;1.50;;
8066;SDS011;4076;48.076;9.118;2022-09-12T14:17:00;3.30;;;1.90;;
8066;SDS011;4076;48.076;9.118;2022-09-12T14:19:41;3.30;;;1.30;;
8066;SDS011;4076;48.076;9.118;2022-09-12T14:22:08;3.67;;;1.40;;
8066;SDS011;4076;48.076;9.118;2022-09-12T14:24:42;3.93;;;2.47;;
8066;SDS011;4076;48.076;9.118;2022-09-12T14:27:19;2.90;;;1.40;;
8066;SDS011;4076;48.076;9.118;2022-09-12T14:29:50;6.30;;;1.60;;
8066;SDS011;4076;48.076;9.118;2022-09-12T14:32:21;3.27;;;1.30;;
8066;SDS011;4076;48.076;9.118;2022-09-12T14:37:30;3.80;;;1.33;;
8066;SDS011;4076;48.076;9.118;2022-09-12T14:40:20;3.23;;;1.20;;
8066;SDS011;4076;48.076;9.118;2022-09-12T14:42:49;2.57;;;1.27;;
8066;SDS011;4076;48.076;9.118;2022-09-12T14:45:24;5.07;;;1.20;;
8066;SDS011;4076;48.076;9.118;2022-09-12T14:47:52;2.90;;;1.40;;
8066;SDS011;4076;48.076;9.118;2022-09-12T14:50:22;3.67;;;1.60;;
8066;SDS011;4076;48.076;9.118;2022-09-12T14:55:52;2.80;;;1.20;;
8066;SDS011;4076;48.076;9.118;2022-09-12T14:58:23;2.70;;;1.40;;
8066;SDS011;4076;48.076;9.118;2022-09-12T15:03:33;2.90;;;1.27;;
8066;SDS011;4076;48.076;9.118;2022-09-12T15:06:20;2.80;;;1.33;;
8066;SDS011;4076;48.076;9.118;2022-09-12T15:08:46;3.10;;;1.40;;
8066;SDS011;4076;48.076;9.118;2022-09-12T15:11:12;2.47;;;1.03;;
8066;SDS011;4076;48.076;9.118;2022-09-12T15:13:38;2.77;;;1.30;;
8066;SDS011;4076;48.076;9.118;2022-09-12T15:16:09;2.40;;;1.10;;
8066;SDS011;4076;48.076;9.118;2022-09-12T15:18:35;2.93;;;1.40;;
8066;SDS011;4076;48.076;9.118;2022-09-12T15:21:02;2.90;;;1.57;;
8066;SDS011;4076;48.076;9.118;2022-09-12T15:23:36;2.97;;;1.33;;
8066;SDS011;4076;48.076;9.118;2022-09-12T15:26:08;2.77;;;1.40;;
8066;SDS011;4076;48.076;9.118;2022-09-12T15:28:36;2.63;;;1.20;;
8066;SDS011;4076;48.076;9.118;2022-09-12T15:31:03;2.80;;;1.50;;
8066;SDS011;4076;48.076;9.118;2022-09-12T15:33:31;3.20;;;1.30;;
8066;SDS011;4076;48.076;9.118;2022-09-12T15:35:57;2.70;;;1.20;;
8066;SDS011;4076;48.076;9.118;2022-09-12T15:38:23;2.97;;;1.40;;
8066;SDS011;4076;48.076;9.118;2022-09-12T15:40:49;3.27;;;1.30;;
8066;SDS011;4076;48.076;9.118;2022-09-12T15:43:17;3.00;;;1.20;;
8066;SDS011;4076;48.076;9.118;2022-09-12T15:45:44;2.93;;;1.30;;
8066;SDS011;4076;48.076;9.118;2022-09-12T15:48:10;3.50;;;1.40;;
8066;SDS011;4076;48.076;9.118;2022-09-12T15:50:37;3.10;;;1.20;;
8066;SDS011;4076;48.076;9.118;2022-09-12T15:53:04;2.90;;;1.13;;
8066;SDS011;4076;48.076;9.118;2022-09-12T15:55:30;3.37;;;1.20;;
8066;SDS011;4076;48.076;9.118;2022-09-12T15:57:57;3.50;;;1.40;;
8066;SDS011;4076;48.076;9.118;2022-09-12T16:00:23;4.10;;;1.50;;
8066;SDS011;4076;48.076;9.118;2022-09-12T16:02:50;2.80;;;1.07;;
8066;SDS011;4076;48.076;9.118;2022-09-12T16:05:18;3.40;;;1.20;;
8066;SDS011;4076;48.076;9.118;2022-09-12T16:07:45;3.30;;;1.10;;
8066;SDS011;4076;48.076;9.118;2022-09-12T16:10:15;3.30;;;1.20;;
8066;SDS011;4076;48.076;9.118;2022-09-12T16:12:43;7.47;;;3.23;;
8066;SDS011;4076;48.076;9.118;2022-09-12T16:15:13;4.70;;;1.80;;
8066;SDS011;4076;48.076;9.118;2022-09-12T16:17:41;4.10;;;1.70;;
8066;SDS011;4076;48.076;9.118;2022-09-12T16:20:07;3.80;;;1.40;;
8066;SDS011;4076;48.076;9.118;2022-09-12T16:22:33;3.70;;;1.37;;
8066;SDS011;4076;48.076;9.118;2022-09-12T16:24:59;4.30;;;1.40;;
8066;SDS011;4076;48.076;9.118;2022-09-12T16:27:25;4.80;;;1.73;;
8066;SDS011;4076;48.076;9.118;2022-09-12T16:29:51;5.97;;;2.30;;
8066;SDS011;4076;48.076;9.118;2022-09-12T16:32:16;6.70;;;1.60;;
8066;SDS011;4076;48.076;9.118;2022-09-12T16:34:42;4.93;;;1.80;;
8066;SDS011;4076;48.076;9.118;2022-09-12T16:37:08;6.67;;;3.33;;
8066;SDS011;4076;48.076;9.118;2022-09-12T16:39:34;3.60;;;1.50;;
8066;SDS011;4076;48.076;9.118;2022-09-12T16:41:59;3.67;;;1.40;;
8066;SDS011;4076;48.076;9.118;2022-09-12T16:44:25;3.80;;;1.40;;
8066;SDS011;4076;48.076;9.118;2022-09-12T16:46:51;4.17;;;1.43;;
8066;SDS011;4076;48.076;9.118;2022-09-12T16:49:16;4.27;;;1.80;;
8066;SDS011;4076;48.076;9.118;2022-09-12T16:51:42;5.37;;;1.77;;
8066;SDS011;4076;48.076;9.118;2022-09-12T16:54:11;3.40;;;1.20;;
8066;SDS011;4076;48.076;9.118;2022-09-12T16:56:41;4.13;;;1.47;;
8066;SDS011;4076;48.076;9.118;2022-09-12T16:59:07;4.23;;;1.63;;
8066;SDS011;4076;48.076;9.118;2022-09-12T17:01:36;4.33;;;1.53;;
8066;SDS011;4076;48.076;9.118;2022-09-12T17:04:02;4.07;;;1.60;;
8066;SDS011;4076;48.076;9.118;2022-09-12T17:06:28;6.33;;;1.50;;
8066;SDS011;4076;48.076;9.118;2022-09-12T17:08:54;6.50;;;2.03;;
8066;SDS011;4076;48.076;9.118;2022-09-12T17:11:24;6.17;;;2.20;;
8066;SDS011;4076;48.076;9.118;2022-09-12T17:13:57;6.40;;;1.43;;
8066;SDS011;4076;48.076;9.118;2022-09-12T17:16:24;4.90;;;1.43;;
8066;SDS011;4076;48.076;9.118;2022-09-12T17:18:52;4.50;;;1.40;;
8066;SDS011;4076;48.076;9.118;2022-09-12T17:21:18;3.33;;;1.17;;
8066;SDS011;4076;48.076;9.118;2022-09-12T17:23:45;3.40;;;1.37;;
8066;SDS011;4076;48.076;9.118;2022-09-12T17:26:11;5.30;;;1.67;;
8066;SDS011;4076;48.076;9.118;2022-09-12T17:28:37;5.03;;;1.57;;
8066;SDS011;4076;48.076;9.118;2022-09-12T17:31:05;4.20;;;1.40;;
8066;SDS011;4076;48.076;9.118;2022-09-12T17:33:32;3.50;;;1.17;;
8066;SDS011;4076;48.076;9.118;2022-09-12T17:35:59;6.73;;;2.03;;
8066;SDS011;4076;48.076;9.118;2022-09-12T17:38:32;5.20;;;1.70;;
8066;SDS011;4076;48.076;9.118;2022-09-12T17:41:12;3.33;;;1.30;;
8066;SDS011;4076;48.076;9.118;2022-09-12T17:43:40;3.87;;;1.47;;
8066;SDS011;4076;48.076;9.118;2022-09-12T17:46:06;4.30;;;1.73;;
8066;SDS011;4076;48.076;9.118;2022-09-12T17:48:32;4.30;;;1.80;;
8066;SDS011;4076;48.076;9.118;2022-09-12T17:51:05;4.30;;;1.70;;
8066;SDS011;4076;48.076;9.118;2022-09-12T17:53:34;3.40;;;1.30;;
8066;SDS011;4076;48.076;9.118;2022-09-12T17:56:00;3.70;;;1.30;;
8066;SDS011;4076;48.076;9.118;2022-09-12T17:58:29;3.70;;;1.40;;
8066;SDS011;4076;48.076;9.118;2022-09-12T18:00:59;3.50;;;1.50;;
8066;SDS011;4076;48.076;9.118;2022-09-12T18:03:48;4.83;;;1.70;;
8066;SDS011;4076;48.076;9.118;2022-09-12T18:06:15;3.60;;;1.40;;
8066;SDS011;4076;48.076;9.118;2022-09-12T18:08:41;3.50;;;1.23;;